createdAt,value
2023-04-22T00:00:28.829Z,32.55
2023-04-22T00:03:44.639Z,35.50
2023-04-22T00:06:57.272Z,35.38
2023-04-22T00:10:13.128Z,36.97
2023-04-22T00:13:25.595Z,33.90
2023-04-22T00:16:38.510Z,29.08
2023-04-22T00:19:50.849Z,28.67
2023-04-22T00:23:03.455Z,31.42
2023-04-22T00:26:15.860Z,28.65
2023-04-22T00:29:28.704Z,32.33
2023-04-22T00:32:41.133Z,31.08
2023-04-22T00:35:54.773Z,29.23
2023-04-22T00:39:07.797Z,31.40
2023-04-22T00:42:20.888Z,27.70
2023-04-22T00:45:33.225Z,37.72
2023-04-22T00:48:45.835Z,26.70
2023-04-22T00:51:58.190Z,25.77
2023-04-22T00:55:11.595Z,27.55
2023-04-22T00:58:26.026Z,28.45
2023-04-22T01:01:38.831Z,27.02
2023-04-22T01:04:54.160Z,28.98
2023-04-22T01:08:06.913Z,26.90
2023-04-22T01:11:19.306Z,31.33
2023-04-22T01:14:32.037Z,26.17
2023-04-22T01:17:45.544Z,25.83
2023-04-22T01:20:58.262Z,29.40
2023-04-22T01:24:10.825Z,28.75
2023-04-22T01:27:23.501Z,30.08
2023-04-22T01:30:36.477Z,24.42
2023-04-22T01:33:49.550Z,25.12
2023-04-22T01:37:01.996Z,28.83
2023-04-22T01:40:14.668Z,26.58
2023-04-22T01:43:27.882Z,24.15
2023-04-22T01:46:42.187Z,28.40
2023-04-22T01:49:54.581Z,28.87
2023-04-22T01:53:07.607Z,24.75
2023-04-22T01:56:20.079Z,27.13
2023-04-22T01:59:34.957Z,24.02
2023-04-22T02:02:47.495Z,22.73
2023-04-22T02:06:00.267Z,25.85
2023-04-22T02:09:12.636Z,24.20
2023-04-22T02:12:25.274Z,22.25
2023-04-22T02:15:37.622Z,23.48
2023-04-22T02:18:50.278Z,25.88
2023-04-22T02:22:05.771Z,19.48
2023-04-22T02:25:18.820Z,20.37
2023-04-22T02:28:31.187Z,21.27
2023-04-22T02:31:43.932Z,21.90
2023-04-22T02:34:56.557Z,18.12
2023-04-22T02:38:10.257Z,22.40
2023-04-22T02:41:22.760Z,25.17
2023-04-22T02:44:35.729Z,19.80
2023-04-22T02:47:48.092Z,22.80
2023-04-22T02:51:00.804Z,20.92
2023-04-22T02:54:13.273Z,20.15
2023-04-22T02:57:26.093Z,16.75
2023-04-22T03:00:38.433Z,22.48
2023-04-22T03:03:51.319Z,18.92
2023-04-22T03:07:04.315Z,22.87
2023-04-22T03:10:17.005Z,20.02
2023-04-22T03:13:29.860Z,23.35
2023-04-22T03:16:42.591Z,20.55
2023-04-22T03:19:55.011Z,21.83
2023-04-22T03:23:08.921Z,19.90
2023-04-22T03:26:21.934Z,20.92
2023-04-22T03:29:34.570Z,24.17
2023-04-22T03:32:46.973Z,18.65
2023-04-22T03:36:00.733Z,20.95
2023-04-22T03:39:13.320Z,20.80
2023-04-22T03:42:26.941Z,25.20
2023-04-22T03:45:39.366Z,21.30
2023-04-22T03:48:53.161Z,20.95
2023-04-22T03:52:06.582Z,21.98
2023-04-22T03:55:20.611Z,19.62
2023-04-22T03:58:34.692Z,25.52
2023-04-22T04:01:51.326Z,20.55
2023-04-22T04:05:05.577Z,23.08
2023-04-22T04:08:18.069Z,29.60
2023-04-22T04:11:30.889Z,29.05
2023-04-22T04:14:43.551Z,24.85
2023-04-22T04:17:56.884Z,24.15
2023-04-22T04:21:09.809Z,23.30
2023-04-22T04:24:23.456Z,24.35
2023-04-22T04:27:39.515Z,20.62
2023-04-22T04:30:53.852Z,19.48
2023-04-22T04:34:07.418Z,20.60
2023-04-22T04:37:22.939Z,24.58
2023-04-22T04:40:37.896Z,19.57
2023-04-22T04:43:51.902Z,22.37
2023-04-22T04:47:05.290Z,22.80
2023-04-22T04:50:20.288Z,21.23
2023-04-22T04:53:32.929Z,22.48
2023-04-22T04:56:46.684Z,16.30
2023-04-22T04:59:59.511Z,22.08
2023-04-22T05:03:12.820Z,19.67
2023-04-22T05:06:26.623Z,16.87
2023-04-22T05:09:40.254Z,21.00
2023-04-22T05:12:53.284Z,33.72
2023-04-22T05:16:06.571Z,36.80
2023-04-22T05:19:19.215Z,29.08
2023-04-22T05:22:32.381Z,29.87
2023-04-22T05:25:44.897Z,24.37
2023-04-22T05:28:58.512Z,20.70
2023-04-22T05:32:12.210Z,22.30
2023-04-22T05:35:25.083Z,24.55
2023-04-22T05:38:38.162Z,21.35
2023-04-22T05:41:50.898Z,17.33
2023-04-22T05:45:03.494Z,17.77
2023-04-22T05:48:16.367Z,20.42
2023-04-22T05:51:30.023Z,15.95
2023-04-22T05:54:42.780Z,13.07
2023-04-22T05:57:56.681Z,19.48
2023-04-22T06:01:09.773Z,15.60
2023-04-22T06:04:23.751Z,14.87
2023-04-22T06:07:36.476Z,14.30
2023-04-22T06:10:51.496Z,14.73
2023-04-22T06:14:03.983Z,11.98
2023-04-22T06:17:16.658Z,14.98
2023-04-22T06:20:29.297Z,12.90
2023-04-22T06:23:42.409Z,12.85
2023-04-22T06:26:54.752Z,14.35
2023-04-22T06:30:08.166Z,12.55
2023-04-22T06:33:20.531Z,11.35
2023-04-22T06:36:37.357Z,14.48
2023-04-22T06:39:50.820Z,12.88
2023-04-22T06:43:04.996Z,13.70
2023-04-22T06:46:19.106Z,13.93
2023-04-22T06:49:38.449Z,12.07
2023-04-22T06:52:52.180Z,12.68
2023-04-22T06:56:05.781Z,12.43
2023-04-22T06:59:18.181Z,13.27
2023-04-22T07:02:32.132Z,10.82
2023-04-22T07:05:45.416Z,11.48
2023-04-22T07:08:58.934Z,8.60
2023-04-22T07:12:11.333Z,9.73
2023-04-22T07:15:24.023Z,11.05
2023-04-22T07:18:36.431Z,13.27
2023-04-22T07:21:49.062Z,13.15
2023-04-22T07:25:01.495Z,9.57
2023-04-22T07:28:14.333Z,12.57
2023-04-22T07:31:26.701Z,12.20
2023-04-22T07:34:40.438Z,13.82
2023-04-22T07:37:52.757Z,13.00
2023-04-22T07:41:05.445Z,10.20
2023-04-22T07:44:21.592Z,12.70
2023-04-22T07:47:34.450Z,10.30
2023-04-22T07:50:46.847Z,9.55
2023-04-22T07:53:59.489Z,13.02
2023-04-22T07:57:11.840Z,11.07
2023-04-22T08:00:24.484Z,12.80
2023-04-22T08:03:37.260Z,11.43
2023-04-22T08:06:49.824Z,10.18
2023-04-22T08:10:02.784Z,11.38
2023-04-22T08:13:16.478Z,16.40
2023-04-22T08:16:30.818Z,11.38
2023-04-22T08:19:43.164Z,13.43
2023-04-22T08:23:00.320Z,11.23
2023-04-22T08:26:15.190Z,10.30
2023-04-22T08:29:27.820Z,13.23
2023-04-22T08:32:40.279Z,12.30
2023-04-22T08:35:52.978Z,13.00
2023-04-22T08:39:05.857Z,10.98
2023-04-22T08:42:19.423Z,11.38
2023-04-22T08:45:32.045Z,11.85
2023-04-22T08:48:44.724Z,11.05
2023-04-22T08:51:57.251Z,11.18
2023-04-22T08:55:09.896Z,10.68
2023-04-22T08:58:22.946Z,12.18
2023-04-22T09:01:38.524Z,11.65
2023-04-22T09:04:52.389Z,12.10
2023-04-22T09:08:05.343Z,11.50
2023-04-22T09:11:19.278Z,11.57
2023-04-22T09:14:32.078Z,11.02
2023-04-22T09:17:44.551Z,10.00
2023-04-22T09:20:57.399Z,12.93
2023-04-22T09:24:10.676Z,12.35
2023-04-22T09:27:24.625Z,13.25
2023-04-22T09:30:37.918Z,11.05
2023-04-22T09:33:58.020Z,12.23
2023-04-22T09:37:11.672Z,12.20
2023-04-22T09:40:24.689Z,10.15
2023-04-22T09:43:37.907Z,8.63
2023-04-22T09:46:51.335Z,12.88
2023-04-22T09:50:07.036Z,9.95
2023-04-22T09:53:20.530Z,12.33
2023-04-22T09:56:45.056Z,10.40
2023-04-22T09:59:58.997Z,10.35
2023-04-22T10:03:11.604Z,10.20
2023-04-22T10:06:24.313Z,12.98
2023-04-22T10:09:36.632Z,11.30
2023-04-22T10:12:49.281Z,11.25
2023-04-22T10:16:01.625Z,12.88
2023-04-22T10:19:16.673Z,11.38
2023-04-22T10:22:29.094Z,12.13
2023-04-22T10:25:41.833Z,14.10
2023-04-22T10:28:54.213Z,11.85
2023-04-22T10:32:26.659Z,15.77
2023-04-22T10:35:38.972Z,10.10
2023-04-22T10:38:54.640Z,11.18
2023-04-22T10:42:11.389Z,9.32
2023-04-22T10:45:24.922Z,10.57
2023-04-22T10:48:56.823Z,8.80
2023-04-22T10:52:09.676Z,13.43
2023-04-22T10:55:22.041Z,12.35
2023-04-22T10:58:35.833Z,10.48
2023-04-22T11:01:48.280Z,12.23
2023-04-22T11:05:39.681Z,12.63
2023-04-22T11:08:53.709Z,9.73
2023-04-22T11:12:39.813Z,12.77
2023-04-22T11:15:55.525Z,11.57
2023-04-22T11:19:08.428Z,10.67
2023-04-22T11:22:20.724Z,9.75
2023-04-22T11:25:33.395Z,9.93
2023-04-22T11:28:46.692Z,12.32
2023-04-22T11:31:59.426Z,10.43
2023-04-22T11:35:18.517Z,10.88
2023-04-22T11:38:31.250Z,13.95
2023-04-22T11:41:44.035Z,8.32
2023-04-22T11:44:57.077Z,8.85
2023-04-22T11:48:11.059Z,10.82
2023-04-22T11:51:23.809Z,11.57
2023-04-22T11:54:37.122Z,7.97
2023-04-22T11:57:54.672Z,14.65
2023-04-22T12:01:07.312Z,10.27
2023-04-22T12:04:23.177Z,10.55
2023-04-22T12:07:35.808Z,9.50
2023-04-22T12:10:50.417Z,11.12
2023-04-22T12:14:08.489Z,11.23
2023-04-22T12:17:24.427Z,10.50
2023-04-22T12:20:36.969Z,12.55
2023-04-22T12:24:00.434Z,8.38
2023-04-22T12:27:13.832Z,12.52
2023-04-22T12:30:26.648Z,9.95
2023-04-22T12:33:39.184Z,7.85
2023-04-22T12:36:51.906Z,8.13
2023-04-22T12:40:05.369Z,12.00
2023-04-22T12:43:18.057Z,8.82
2023-04-22T12:46:30.519Z,9.77
2023-04-22T12:49:44.915Z,8.82
2023-04-22T12:52:58.841Z,9.43
2023-04-22T12:56:11.609Z,16.33
2023-04-22T12:59:23.968Z,11.30
2023-04-22T13:02:36.737Z,10.07
2023-04-22T13:05:49.234Z,10.18
2023-04-22T13:09:02.192Z,9.50
2023-04-22T13:12:14.572Z,9.23
2023-04-22T13:15:27.211Z,9.70
2023-04-22T13:18:39.554Z,11.63
2023-04-22T13:21:52.164Z,10.52
2023-04-22T13:25:05.133Z,10.15
2023-04-22T13:28:17.810Z,9.57
2023-04-22T13:31:30.207Z,9.30
2023-04-22T13:34:42.902Z,13.45
2023-04-22T13:37:55.337Z,11.52
2023-04-22T13:41:08.002Z,13.73
2023-04-22T13:44:20.505Z,45.30
2023-04-22T13:47:33.216Z,15.85
2023-04-22T13:50:45.723Z,13.55
2023-04-22T13:53:59.241Z,14.77
2023-04-22T13:57:12.224Z,13.27
2023-04-22T14:00:25.022Z,10.23
2023-04-22T14:03:37.802Z,15.55
2023-04-22T14:06:50.198Z,13.60
2023-04-22T14:10:02.854Z,18.05
2023-04-22T14:13:15.280Z,17.85
2023-04-22T14:16:27.933Z,11.60
2023-04-22T14:19:40.498Z,12.27
2023-04-22T14:22:53.450Z,11.18
2023-04-22T14:26:06.627Z,13.38
2023-04-22T14:29:19.257Z,9.98
2023-04-22T14:32:31.915Z,8.05
2023-04-22T14:35:44.675Z,10.80
2023-04-22T14:38:57.057Z,12.18
2023-04-22T14:42:09.704Z,10.95
2023-04-22T14:45:22.583Z,10.23
2023-04-22T14:48:35.637Z,8.73
2023-04-22T14:51:48.301Z,10.70
2023-04-22T14:55:11.859Z,10.50
2023-04-22T14:58:32.387Z,9.18
2023-04-22T15:01:45.091Z,11.10
2023-04-22T15:04:57.500Z,10.75
2023-04-22T15:08:10.143Z,10.93
2023-04-22T15:11:22.516Z,11.48
2023-04-22T15:14:35.710Z,10.18
2023-04-22T15:17:48.111Z,12.43
2023-04-22T15:21:00.902Z,10.73
2023-04-22T15:24:13.261Z,12.65
2023-04-22T15:27:27.029Z,13.18
2023-04-22T15:30:40.748Z,9.35
2023-04-22T15:33:53.605Z,11.40
2023-04-22T15:37:06.023Z,9.73
2023-04-22T15:40:18.722Z,10.18
2023-04-22T15:43:31.116Z,8.98
2023-04-22T15:46:43.924Z,9.27
2023-04-22T15:49:57.826Z,12.52
2023-04-22T15:53:10.548Z,12.23
2023-04-22T15:56:23.098Z,10.45
2023-04-22T15:59:35.768Z,8.98
2023-04-22T16:02:55.292Z,10.32
2023-04-22T16:06:10.356Z,11.90
2023-04-22T16:09:23.208Z,10.18
2023-04-22T16:12:35.865Z,10.65
2023-04-22T16:15:48.207Z,9.40
2023-04-22T16:19:00.861Z,11.75
2023-04-22T16:22:13.260Z,11.43
2023-04-22T16:25:25.924Z,9.25
2023-04-22T16:28:38.290Z,12.90
2023-04-22T16:31:51.717Z,14.80
2023-04-22T16:35:04.489Z,11.57
2023-04-22T16:38:17.152Z,10.50
2023-04-22T16:41:29.565Z,11.48
2023-04-22T16:44:42.208Z,11.63
2023-04-22T16:47:54.672Z,9.27
2023-04-22T16:51:07.315Z,10.13
2023-04-22T16:54:19.721Z,9.98
2023-04-22T16:57:32.826Z,10.50
2023-04-22T17:00:47.613Z,8.90
2023-04-22T17:07:14.335Z,13.18
2023-04-22T17:10:27.671Z,10.88
2023-04-22T17:13:40.318Z,12.15
2023-04-22T17:16:52.935Z,10.20
2023-04-22T17:20:08.634Z,12.00
2023-04-22T17:23:21.374Z,11.40
2023-04-22T17:26:33.747Z,12.55
2023-04-22T17:29:46.659Z,13.75
2023-04-22T17:32:59.127Z,16.12
2023-04-22T17:36:12.096Z,16.90
2023-04-22T17:39:24.482Z,12.65
2023-04-22T17:42:45.794Z,25.33
2023-04-22T17:45:58.746Z,19.98
2023-04-22T17:49:11.618Z,19.30
2023-04-22T17:52:23.961Z,14.55
2023-04-22T17:55:36.598Z,15.98
2023-04-22T17:58:48.963Z,18.90
2023-04-22T18:02:01.804Z,22.05
2023-04-22T18:05:14.574Z,24.90
2023-04-22T18:08:27.249Z,23.45
2023-04-22T18:11:39.951Z,24.85
2023-04-22T18:14:52.486Z,16.08
2023-04-22T18:18:05.217Z,19.92
2023-04-22T18:21:17.570Z,16.73
2023-04-22T18:24:30.216Z,17.58
2023-04-22T18:27:42.762Z,22.05
2023-04-22T18:30:55.475Z,19.30
2023-04-22T18:34:08.268Z,18.00
2023-04-22T18:37:21.792Z,20.20
2023-04-22T18:40:34.164Z,19.05
2023-04-22T18:43:48.451Z,23.35
2023-04-22T18:47:00.856Z,24.98
2023-04-22T18:50:13.485Z,23.67
2023-04-22T18:53:25.959Z,18.12
2023-04-22T18:56:38.620Z,22.23
2023-04-22T18:59:51.341Z,18.95
2023-04-22T19:03:04.163Z,20.27
2023-04-22T19:06:18.166Z,24.50
2023-04-22T19:09:33.866Z,27.65
2023-04-22T19:12:46.228Z,29.95
2023-04-22T19:15:59.965Z,31.87
2023-04-22T19:19:12.421Z,35.83
2023-04-22T19:22:25.080Z,39.00
2023-04-22T19:25:37.902Z,34.05
2023-04-22T19:28:50.734Z,40.75
2023-04-22T19:32:03.524Z,43.15
2023-04-22T19:35:16.562Z,40.47
2023-04-22T19:38:29.015Z,43.30
2023-04-22T19:41:41.769Z,37.50
2023-04-22T19:44:54.803Z,45.25
2023-04-22T19:48:07.965Z,48.10
2023-04-22T19:51:20.405Z,55.05
2023-04-22T19:54:33.605Z,35.47
2023-04-22T19:57:46.317Z,39.92
2023-04-22T20:00:59.138Z,38.08
2023-04-22T20:04:12.055Z,35.97
2023-04-22T20:07:24.468Z,38.50
2023-04-22T20:10:37.135Z,35.55
2023-04-22T20:13:49.745Z,34.30
2023-04-22T20:17:02.626Z,36.28
2023-04-22T20:20:17.417Z,40.50
2023-04-22T20:23:30.036Z,40.90
2023-04-22T20:26:42.445Z,42.60
2023-04-22T20:29:55.380Z,45.00
2023-04-22T20:33:07.989Z,47.15
2023-04-22T20:36:22.464Z,39.42
2023-04-22T20:39:35.158Z,42.78
2023-04-22T20:42:47.770Z,45.15
2023-04-22T20:46:00.242Z,42.08
2023-04-22T20:49:12.937Z,46.35
2023-04-22T20:52:25.286Z,52.92
2023-04-22T20:55:37.930Z,46.25
2023-04-22T20:58:50.718Z,39.72
2023-04-22T21:02:07.337Z,44.70
2023-04-22T21:05:19.910Z,39.07
2023-04-22T21:08:32.572Z,47.62
2023-04-22T21:11:45.085Z,47.03
2023-04-22T21:14:58.081Z,48.33
2023-04-22T21:18:10.560Z,43.70
2023-04-22T21:21:23.824Z,41.58
2023-04-22T21:24:36.143Z,33.88
2023-04-22T21:27:49.067Z,34.92
2023-04-22T21:31:01.756Z,31.52
2023-04-22T21:34:14.405Z,39.38
2023-04-22T21:37:26.776Z,35.72
2023-04-22T21:40:39.454Z,36.30
2023-04-22T21:43:51.918Z,31.60
2023-04-22T21:47:04.769Z,40.42
2023-04-22T21:50:18.576Z,35.53
2023-04-22T21:53:32.939Z,32.00
2023-04-22T21:56:45.255Z,32.88
2023-04-22T21:59:57.872Z,37.05
2023-04-22T22:03:10.578Z,35.38
2023-04-22T22:06:23.320Z,30.10
2023-04-22T22:09:35.696Z,37.13
2023-04-22T22:12:48.452Z,37.60
2023-04-22T22:16:01.947Z,32.70
2023-04-22T22:19:14.657Z,30.90
2023-04-22T22:22:27.098Z,30.35
2023-04-22T22:25:39.733Z,27.52
2023-04-22T22:28:52.061Z,28.77
2023-04-22T22:32:04.823Z,32.58
2023-04-22T22:35:17.306Z,29.48
2023-04-22T22:38:29.889Z,33.63
2023-04-22T22:41:43.907Z,26.37
2023-04-22T22:44:57.593Z,26.23
2023-04-22T22:48:09.986Z,29.20
2023-04-22T22:51:22.741Z,28.98
2023-04-22T22:54:39.442Z,27.23
2023-04-22T22:57:52.150Z,25.30
2023-04-22T23:01:05.182Z,30.55
2023-04-22T23:04:18.119Z,28.23
2023-04-22T23:07:30.585Z,31.80
2023-04-22T23:10:43.239Z,27.83
2023-04-22T23:13:56.330Z,26.20
2023-04-22T23:17:09.084Z,24.37
2023-04-22T23:20:22.150Z,25.50
2023-04-22T23:23:34.815Z,26.48
2023-04-22T23:26:47.487Z,24.65
2023-04-22T23:30:00.405Z,26.20
2023-04-22T23:33:12.935Z,27.83
2023-04-22T23:36:25.639Z,22.40
2023-04-22T23:39:39.091Z,23.90
2023-04-22T23:42:51.739Z,24.83
2023-04-22T23:46:07.115Z,24.55
2023-04-22T23:49:19.786Z,24.85
2023-04-22T23:52:32.150Z,25.25
2023-04-22T23:55:45.077Z,24.27
2023-04-22T23:58:57.704Z,24.37
